Flight Information

DEPARTURE
ONTARIO, CA
Elevation:
944
Runways:
8L/26R - 12197x150 - CONC-G
8R/26L - 10200x150 - CONC-G
Active PE Departure:
26L - 26R
Current PE ATIS:
E
Altimeter:
30.02
Remarks:
SIMULTANEOUS APPROACHES TO PARALLEL RUNWAYS IN USE. V F R DEPARTURES CONTACT CLEARANCE DELIVERY, ADVISE ON COURSE HEADING, ALTITUDE, AND IF FLIGHT FOLLOWING IS REQUESTED.
ATIS:
124.25 909-605-0056
Clearance Delivery:
118.1
Ground:
121.9
Tower:
120.6
DESTINATION
SAN FRANCISCO, CA
Elevation:
13
TPA:
1013 (est.)
Runways:
10L/28R - 11870x200 - ASPH-G
10R/28L - 11381x200 - ASPH-G
1L/19R - 7650x200 - ASPH-G
1R/19L - 8650x200 - ASPH-G
Active PE Arriving:
28L
Active PE Approach:
ILS RUNWAY 2 8 LEFT APPROACH IN USE.
Current PE ATIS:
E
Altimeter:
30.01
Remarks:
V F R DEPARTURES CONTACT CLEARANCE DELIVERY, ADVISE ON COURSE HEADING, ALTITUDE, AND IF FLIGHT FOLLOWING IS REQUESTED. NOTICE TO AIRMEN RUNWAY 2 8 RIGHT 1 0 LEFT CLOSED.
ATIS:
118.85 650-877-3585
Tower:
120.5
Ground:
121.8


315.5 NM314° True-14° Var300° HDG

Flight Plan:
(click to file on line)

1. Type
2. Aircraft Identification
3. Aircraft Type / Special Equipment
4. True Airspeed
kts
5. Departure Airport
(ICAO code)
6. Arriving Airport
(ICAO code)
7. Cruising Altitude
ft
8. Alternate Airport
(ICAO code)
9. Route of Flight
10. Remarks


00:00:00 Departure ATIS: Destination ATIS:

Clearance Limit:
Route:
Altitude: Expect in minutes
Frequency:
Transponder: (7500 Hijack / 7600 Lost Comms / 7700 Emergency)


KONT 121632Z VRB03KT 4SM HZ SCT014 18/13 A3001 RMK AO2 T01830128
Time: 2021-05-12T16:32:00Z
1620838076
Winds: variable
Visibility: 4.0 sm
Clouds (AGL): SCT 1400
Temperature: 18.3 C
Dew Point: 12.8 C
Pressure: 30.008858 in Hgbr

KSFO 121556Z 00000KT 5SM HZ SCT006 14/10 A3001 RMK AO2 SLP160 T01390100
Time: 2021-05-12T15:56:00Z
1620838077
Winds: calm
Visibility: 5.0 sm
Clouds (AGL): SCT 600
Temperature: 13.9 C
Dew Point: 10.0 C
Pressure: 30.008858 in Hgbr


Notes:

Data extracted from FAA Digital Chart Supplement. Effective: 0901Z Thursday, APR 22, 2021 to 0901Z Thursday, JUN 17, 2021
Current ATIS data is provided courtisy of PilotEdge.